Aviation Digital Data Service (ADDS)

Output produced by METARs form (1548 UTC 23 January 2019)
found at http://www.aviationweather.gov/metar/data/
 
Forecast for: VLSK (SAVANNAKHET(CV/M, LA)
Text: TAF VLSK 231100Z 2312/2412 12004KT 8000 SCT020 FEW100
Forecast period: 1200 UTC 23 January 2019 to 1200 UTC 24 January 2019
Forecast type: FROM: standard forecast or significant change
Winds: from the ESE (120 degrees) at 5 MPH (4 knots; 2.1 m/s)
Visibility: 5 miles (8 km)
Ceiling: at least 12,000 feet AGL
Clouds: scattered clouds at 2000 feet AGL
few clouds at 10000 feet AGL
Weather: no significant weather forecast for this period
Text: TEMPO 2314/2320 3000 BR SCT040
Forecast period: 1400 to 2000 UTC 23 January 2019
Forecast type: TEMPORARY: The following changes expected for less than half the time period
Visibility: 1.86 miles (2.99 km)
Ceiling: at least 12,000 feet AGL
Clouds: scattered clouds at 4000 feet AGL
Weather: BR  (mist)